createdAt,value
2018-12-13T00:01:22.357Z,30.13
2018-12-13T00:06:33.187Z,27.87
2018-12-13T00:11:31.409Z,32.03
2018-12-13T00:16:35.890Z,25.73
2018-12-13T00:21:40.413Z,28.87
2018-12-13T00:26:44.925Z,29.77
2018-12-13T00:31:49.425Z,28.63
2018-12-13T00:36:53.945Z,30.17
2018-12-13T00:41:58.461Z,32.90
2018-12-13T00:47:02.994Z,34.67
2018-12-13T00:52:07.514Z,31.93
2018-12-13T00:57:12.025Z,28.07
2018-12-13T01:02:16.550Z,31.50
2018-12-13T01:07:21.061Z,36.87
2018-12-13T01:12:25.764Z,35.33
2018-12-13T01:17:30.277Z,28.57
2018-12-13T01:22:34.841Z,30.73
2018-12-13T01:27:39.364Z,30.87
2018-12-13T01:32:43.872Z,42.13
2018-12-13T01:37:48.373Z,35.33
2018-12-13T01:42:52.866Z,31.13
2018-12-13T01:47:57.365Z,31.40
2018-12-13T01:53:01.871Z,37.83
2018-12-13T01:58:06.373Z,33.47
2018-12-13T02:03:10.898Z,30.10
2018-12-13T02:08:15.489Z,37.20
2018-12-13T02:13:19.982Z,37.10
2018-12-13T02:18:24.490Z,33.80
2018-12-13T02:23:29.077Z,31.53
2018-12-13T02:28:33.611Z,38.07
2018-12-13T02:33:38.097Z,31.07
2018-12-13T02:38:42.782Z,34.50
2018-12-13T02:43:47.318Z,34.90
2018-12-13T02:49:08.436Z,33.77
2018-12-13T02:54:12.943Z,32.23
2018-12-13T02:59:17.455Z,34.97
2018-12-13T03:04:21.957Z,35.33
2018-12-13T03:09:26.585Z,27.70
2018-12-13T03:14:31.044Z,33.27
2018-12-13T03:19:35.546Z,31.20
2018-12-13T03:24:40.072Z,29.87
2018-12-13T03:29:44.601Z,31.47
2018-12-13T03:34:49.217Z,29.77
2018-12-13T03:39:53.655Z,29.47
2018-12-13T03:44:58.185Z,26.97
2018-12-13T03:50:02.713Z,26.57
2018-12-13T03:55:07.255Z,35.80
2018-12-13T04:00:11.760Z,32.43
2018-12-13T04:05:16.260Z,29.07
2018-12-13T04:10:20.803Z,31.53
2018-12-13T04:15:25.399Z,42.13
2018-12-13T04:20:29.970Z,31.03
2018-12-13T04:25:34.457Z,29.83
2018-12-13T04:30:38.957Z,32.17
2018-12-13T04:35:43.481Z,28.60
2018-12-13T04:40:47.991Z,33.43
2018-12-13T04:45:52.504Z,27.00
2018-12-13T04:50:57.023Z,32.23
2018-12-13T04:56:01.577Z,27.47
2018-12-13T05:01:06.140Z,30.63
2018-12-13T05:06:10.685Z,33.07
2018-12-13T05:11:15.193Z,25.17
2018-12-13T05:16:19.713Z,30.40
2018-12-13T05:21:24.279Z,29.73
2018-12-13T05:26:28.779Z,30.10
2018-12-13T05:31:33.289Z,34.33
2018-12-13T05:36:37.830Z,31.00
2018-12-13T05:41:42.333Z,33.07
2018-12-13T05:46:46.880Z,30.00
2018-12-13T05:51:51.381Z,27.60
2018-12-13T05:56:55.870Z,31.03
2018-12-13T06:02:00.376Z,34.40
2018-12-13T06:07:04.857Z,32.10
2018-12-13T06:12:09.347Z,32.17
2018-12-13T06:17:13.825Z,32.87
2018-12-13T06:22:18.329Z,35.27
2018-12-13T06:27:22.853Z,29.30
2018-12-13T06:32:27.342Z,33.10
2018-12-13T06:37:31.829Z,30.93
2018-12-13T06:42:36.306Z,31.83
2018-12-13T06:47:40.794Z,36.90
2018-12-13T06:52:45.289Z,33.60
2018-12-13T06:57:49.913Z,32.20
2018-12-13T07:02:54.390Z,33.70
2018-12-13T07:07:58.962Z,33.23
2018-12-13T07:14:06.815Z,30.07
2018-12-13T07:19:11.304Z,31.77
2018-12-13T07:24:15.869Z,32.13
2018-12-13T07:29:20.357Z,32.80
2018-12-13T07:34:24.852Z,34.57
2018-12-13T07:39:29.329Z,30.40
2018-12-13T07:44:33.812Z,31.90
2018-12-13T07:49:38.312Z,37.13
2018-12-13T07:54:42.817Z,33.00
2018-12-13T07:59:47.309Z,36.53
2018-12-13T08:04:51.799Z,32.57
2018-12-13T08:09:56.313Z,35.40
2018-12-13T08:15:00.831Z,31.47
2018-12-13T08:20:06.340Z,26.77
2018-12-13T08:25:10.875Z,31.13
2018-12-13T08:30:15.353Z,33.53
2018-12-13T08:35:19.845Z,28.17
2018-12-13T08:40:24.334Z,27.83
2018-12-13T08:45:28.857Z,32.97
2018-12-13T08:50:33.364Z,32.57
2018-12-13T08:55:37.921Z,28.67
2018-12-13T09:00:42.413Z,35.00
2018-12-13T09:05:46.900Z,38.67
2018-12-13T09:10:51.531Z,29.20
2018-12-13T09:15:56.137Z,33.03
2018-12-13T09:21:00.852Z,31.80
2018-12-13T09:26:05.358Z,33.23
2018-12-13T09:31:09.843Z,31.37
2018-12-13T09:36:14.332Z,29.30
2018-12-13T09:41:18.831Z,28.67
2018-12-13T09:46:23.336Z,33.47
2018-12-13T09:51:27.949Z,37.07
2018-12-13T09:56:32.465Z,33.20
2018-12-13T10:01:36.988Z,36.87
2018-12-13T10:06:41.477Z,35.47
2018-12-13T10:11:45.973Z,34.37
2018-12-13T10:16:50.472Z,33.87
2018-12-13T10:21:54.997Z,33.40
2018-12-13T10:26:59.557Z,30.77
2018-12-13T10:32:04.120Z,34.97
2018-12-13T10:37:08.608Z,36.93
2018-12-13T10:42:13.287Z,35.53
2018-12-13T10:47:20.410Z,40.17
2018-12-13T10:52:24.987Z,33.33
2018-12-13T10:57:29.485Z,34.03
2018-12-13T11:02:53.777Z,41.00
2018-12-13T11:07:58.272Z,39.30
2018-12-13T11:13:02.765Z,42.80
2018-12-13T11:18:07.257Z,42.23
2018-12-13T11:23:11.789Z,40.93
2018-12-13T11:28:33.408Z,47.47
2018-12-13T11:33:37.917Z,46.90
2018-12-13T11:38:42.511Z,45.10
2018-12-13T11:43:47.070Z,44.03
2018-12-13T11:48:51.623Z,39.77
2018-12-13T11:53:56.162Z,39.23
2018-12-13T11:59:00.655Z,48.83
2018-12-13T12:04:05.173Z,42.93
2018-12-13T12:09:12.328Z,37.47
2018-12-13T12:14:14.338Z,34.70
2018-12-13T12:19:18.838Z,34.17
2018-12-13T12:24:23.321Z,35.33
2018-12-13T12:29:27.905Z,35.73
2018-12-13T12:34:32.402Z,37.43
2018-12-13T12:39:37.027Z,32.07
2018-12-13T12:44:42.475Z,30.43
2018-12-13T12:49:47.073Z,36.90
2018-12-13T12:54:51.610Z,32.53
2018-12-13T12:59:56.114Z,27.20
2018-12-13T13:05:00.625Z,28.53
2018-12-13T13:10:05.755Z,33.07
2018-12-13T13:15:10.291Z,31.83
2018-12-13T13:20:14.844Z,28.87
2018-12-13T13:25:19.370Z,30.00
2018-12-13T13:30:23.877Z,26.93
2018-12-13T13:35:28.393Z,32.23
2018-12-13T13:40:32.970Z,35.23
2018-12-13T13:45:37.532Z,33.93
2018-12-13T13:50:42.030Z,37.50
2018-12-13T13:55:46.573Z,42.90
2018-12-13T14:00:51.062Z,32.07
2018-12-13T14:05:55.592Z,39.80
2018-12-13T14:11:00.176Z,37.37
2018-12-13T14:16:04.682Z,33.83
2018-12-13T14:21:09.180Z,38.33
2018-12-13T14:26:13.716Z,33.67
2018-12-13T14:31:18.217Z,44.13
2018-12-13T14:36:22.785Z,42.13
2018-12-13T14:41:27.274Z,40.93
2018-12-13T14:46:31.804Z,37.40
2018-12-13T14:51:36.408Z,34.00
2018-12-13T14:56:40.893Z,40.80
2018-12-13T15:01:45.397Z,41.13
2018-12-13T15:06:49.890Z,38.03
2018-12-13T15:11:54.389Z,37.40
2018-12-13T15:16:58.870Z,36.17
2018-12-13T15:22:03.386Z,36.50
2018-12-13T15:27:07.956Z,39.17
2018-12-13T15:32:12.530Z,34.70
2018-12-13T15:37:17.019Z,40.27
2018-12-13T15:42:21.553Z,50.80
2018-12-13T15:47:26.114Z,40.47
2018-12-13T15:52:30.613Z,43.53
2018-12-13T15:57:35.133Z,39.30
2018-12-13T16:02:39.741Z,41.33
2018-12-13T16:07:44.266Z,37.73
2018-12-13T16:12:48.808Z,38.60
2018-12-13T16:17:53.297Z,38.57
2018-12-13T16:22:57.836Z,43.00
2018-12-13T16:28:02.324Z,36.57
2018-12-13T16:33:06.809Z,34.97
2018-12-13T16:38:11.580Z,45.27
2018-12-13T16:43:16.117Z,41.63
2018-12-13T16:48:20.677Z,40.93
2018-12-13T16:53:25.162Z,38.53
2018-12-13T16:58:29.745Z,40.33
2018-12-13T17:03:40.913Z,41.67
2018-12-13T17:08:45.477Z,37.50
2018-12-13T17:13:50.001Z,33.67
2018-12-13T17:18:54.486Z,37.57
2018-12-13T17:23:59.018Z,41.10
2018-12-13T17:29:03.533Z,35.10
2018-12-13T17:34:08.061Z,29.60
2018-12-13T17:39:12.626Z,41.83
2018-12-13T17:44:17.121Z,37.77
2018-12-13T17:49:21.664Z,33.63
2018-12-13T17:54:26.163Z,30.50
2018-12-13T17:59:30.665Z,33.57
2018-12-13T18:04:35.185Z,32.40
2018-12-13T18:09:39.688Z,37.00
2018-12-13T18:14:44.320Z,29.60
2018-12-13T18:19:48.793Z,32.83
2018-12-13T18:24:53.282Z,37.83
2018-12-13T18:29:57.781Z,35.67
2018-12-13T18:35:02.701Z,35.80
2018-12-13T18:40:07.926Z,39.17
2018-12-13T18:45:12.769Z,37.20
2018-12-13T18:50:18.307Z,38.50
2018-12-13T18:55:23.101Z,37.97
2018-12-13T19:00:27.590Z,39.27
2018-12-13T19:05:32.093Z,40.47
2018-12-13T19:10:41.786Z,37.13
2018-12-13T19:15:41.198Z,42.93
2018-12-13T19:20:45.755Z,42.23
2018-12-13T19:25:50.352Z,46.97
2018-12-13T19:30:55.019Z,42.40
2018-12-13T19:35:59.810Z,42.47
2018-12-13T19:41:04.377Z,42.43
2018-12-13T19:46:08.946Z,38.87
2018-12-13T19:51:13.545Z,44.07
2018-12-13T19:56:18.067Z,43.50
2018-12-13T20:01:22.637Z,37.87
2018-12-13T20:06:27.245Z,44.40
2018-12-13T20:11:31.745Z,45.20
2018-12-13T20:16:36.257Z,46.73
2018-12-13T20:21:40.813Z,38.43
2018-12-13T20:26:45.334Z,43.87
2018-12-13T20:31:49.862Z,42.33
2018-12-13T20:36:54.774Z,37.47
2018-12-13T20:41:59.286Z,37.60
2018-12-13T20:47:03.866Z,45.47
2018-12-13T20:52:08.433Z,41.90
2018-12-13T20:57:12.921Z,39.43
2018-12-13T21:02:17.429Z,48.17
2018-12-13T21:07:38.389Z,44.77
2018-12-13T21:12:44.642Z,45.77
2018-12-13T21:17:49.165Z,42.53
2018-12-13T21:22:53.686Z,44.13
2018-12-13T21:27:58.260Z,43.23
2018-12-13T21:33:02.823Z,39.10
2018-12-13T21:38:07.316Z,40.40
2018-12-13T21:43:11.813Z,39.63
2018-12-13T21:48:16.422Z,37.73
2018-12-13T21:53:20.929Z,45.03
2018-12-13T21:58:25.421Z,39.63
2018-12-13T22:03:29.917Z,38.00
2018-12-13T22:08:34.405Z,35.50
2018-12-13T22:13:38.909Z,35.90
2018-12-13T22:18:43.412Z,36.60
2018-12-13T22:23:47.965Z,40.87
2018-12-13T22:28:52.485Z,41.80
2018-12-13T22:33:56.993Z,48.60
2018-12-13T22:39:01.533Z,40.30
2018-12-13T22:44:06.025Z,40.93
2018-12-13T22:49:10.547Z,44.23
2018-12-13T22:54:15.038Z,45.33
2018-12-13T22:59:19.535Z,35.40
2018-12-13T23:04:24.073Z,42.70
2018-12-13T23:09:28.589Z,51.47
2018-12-13T23:14:33.093Z,38.67
2018-12-13T23:19:37.593Z,36.47
2018-12-13T23:24:42.121Z,40.83
2018-12-13T23:29:46.634Z,41.13
2018-12-13T23:34:51.131Z,45.90
2018-12-13T23:39:55.628Z,46.23
2018-12-13T23:45:00.105Z,42.30
2018-12-13T23:50:04.661Z,36.20
2018-12-13T23:55:09.174Z,39.17
